METAR Analyzer

一覧表示

Hello, Guest. (Login)

RJCC/CTS  -  札幌/新千歳

観測日時
2024-07-12 23:30 (UTC) (17分前)
気温
22
露点
17
湿数
5
相対湿度
73.3%
QNH
1008.5hPa
推定現地気圧
1005.5hPa
推定海面気圧
1008.4hPa
体感温度
14.5
(無風時)
22.2
HI
22.2
気温前日比
-1
体感温度前日比
-1
HI前日比
-1
水平視程
>10000m
鉛直視程
データなし
雲底高度
5000ft AGL
V/I
VMC (VFR)
RVR
No RVR data
卓越風
11kt from 350°
ガスト
No gust
降水
報告なし
その他の天気
報告なし
少しの(1/8) 層雲 @ 1000ft AGL / 散在する(3/8) 積雲 @ 2500ft AGL / 隙間のある(6/8) 積雲 @ 5000ft AGL

RJCC 122330Z 35011KT 9999 FEW010 SCT025 BKN050 22/17 Q1008 RMK 1ST010 3CU025 6CU050 A2978

[PR]

RJTT/HND  -  東京/羽田

観測日時
2024-07-12 23:30 (UTC) (17分前)
気温
28
露点
23
湿数
5
相対湿度
74.3%
QNH
1008.5hPa
推定現地気圧
1007.8hPa
推定海面気圧
1008.5hPa
体感温度
23.9
(無風時)
27
HI
31.3
気温前日比
+1
体感温度前日比
+1.6
HI前日比
+1.2
水平視程
>10000m
鉛直視程
データなし
雲底高度
Unknown
V/I
判定不可
RVR
No RVR data
卓越風
4kt from 180° (120° ~ 260°)
ガスト
No gust
降水
報告なし
その他の天気
報告なし
少しの(1/8) 積雲 @ 1500ft AGL / 隙間のある雲 @ 不明な高さ

RJTT 122330Z 18004KT 120V260 9999 FEW015 BKN/// 28/23 Q1008 NOSIG RMK 1CU015 A2978

[PR]

RJAA/NRT  -  東京/成田

観測日時
2024-07-12 23:30 (UTC) (17分前)
気温
26
露点
24
湿数
2
相対湿度
88.8%
QNH
1008.5hPa
推定現地気圧
1007.2hPa
推定海面気圧
1008.5hPa
体感温度
22.8
(無風時)
26.4
HI
27
気温前日比
-1
体感温度前日比
-0.9
HI前日比
-3.1
水平視程
>10000m
鉛直視程
データなし
雲底高度
9000ft AGL
V/I
VMC (VFR)
RVR
No RVR data
卓越風
3kt from 270° (200° ~ 330°)
ガスト
No gust
降水
報告なし
その他の天気
報告なし
少しの(2/8) 積雲 @ 1000ft AGL / 隙間のある(7/8) 高積雲 @ 9000ft AGL

RJAA 122330Z 27003KT 200V330 9999 FEW010 BKN090 26/24 Q1008 NOSIG RMK 2CU010 7AC090 A2978

[PR]

RJGG/NGO  -  名古屋/中部

観測日時
2024-07-12 23:30 (UTC) (17分前)
気温
25
露点
22
湿数
3
相対湿度
83.5%
QNH
1008hPa
推定現地気圧
1007.5hPa
推定海面気圧
1008.0hPa
体感温度
21.4
(無風時)
25.2
HI
25.7
気温前日比
+2
体感温度前日比
+4.2
HI前日比
+1.8
水平視程
>10000m
鉛直視程
データなし
雲底高度
Unknown
V/I
判定不可
RVR
No RVR data
卓越風
3kt from 260°
ガスト
No gust
降水
報告なし
その他の天気
報告なし
少しの雲 @ 3000ft AGL / 隙間のある雲 @ 不明な高さ

RJGG 122330Z 26003KT 9999 FEW030 BKN/// 25/22 Q1008 BECMG 24005KT

[PR]

RJOO/ITM  -  大阪/伊丹

観測日時
2024-07-12 23:00 (UTC) (47分前)
気温
27
露点
20
湿数
7
相対湿度
65.6%
QNH
1007.8hPa
推定現地気圧
1006.4hPa
推定海面気圧
1007.8hPa
体感温度
21.6
(無風時)
25.7
HI
28.5
気温前日比
+5
体感温度前日比
+5
HI前日比
+5.8
水平視程
>10000m
鉛直視程
データなし
雲底高度
Unknown
V/I
判定不可
RVR
No RVR data
卓越風
6kt from 60° (360° ~ 110°)
ガスト
No gust
降水
報告なし
その他の天気
報告なし
少しの(1/8) 積雲 @ 2000ft AGL / 隙間のある雲 @ 不明な高さ

RJOO 122300Z 06006KT 360V110 9999 FEW020 BKN/// 27/20 Q1007 RMK 1CU020 A2976

[PR]

RJBB/KIX  -  大阪/関西

観測日時
2024-07-12 23:30 (UTC) (17分前)
気温
26
露点
23
湿数
3
相対湿度
83.6%
QNH
1007hPa
推定現地気圧
1006.4hPa
推定海面気圧
1007.0hPa
体感温度
20.8
(無風時)
26
HI
26.8
気温前日比
+4
体感温度前日比
+5.4
HI前日比
+3.9
水平視程
>10000m
鉛直視程
データなし
雲底高度
10000ft AGL
V/I
VMC (VFR)
RVR
No RVR data
卓越風
8kt from 70°
ガスト
No gust
降水
報告なし
その他の天気
報告なし
少しの雲 @ 2000ft AGL / 散在する雲 @ 7000ft AGL / 隙間のある雲 @ 10000ft AGL

RJBB 122330Z 07008KT 9999 FEW020 SCT070 BKN100 26/23 Q1007 NOSIG

[PR]

RJFF/FUK  -  福岡

観測日時
2024-07-12 23:30 (UTC) (17分前)
気温
26
露点
24
湿数
2
相対湿度
88.8%
QNH
1005.8hPa
推定現地気圧
1004.7hPa
推定海面気圧
1005.7hPa
体感温度
22.8
(無風時)
26.4
HI
27
気温前日比
+1
体感温度前日比
+1.4
HI前日比
+1.3
水平視程
>10000m
鉛直視程
データなし
雲底高度
7000ft AGL
V/I
VMC (VFR)
RVR
No RVR data
卓越風
3kt from 160° (50° ~ 230°)
ガスト
No gust
降水
報告なし
その他の天気
報告なし
少しの(1/8) 層雲 @ 400ft AGL / 散在する(4/8) 積雲 @ 4000ft AGL / 隙間のある(6/8) 高積雲 @ 7000ft AGL

RJFF 122330Z 16003KT 050V230 9999 FEW004 SCT040 BKN070 26/24 Q1005 NOSIG RMK 1ST004 4CU040 6AC070 A2970

[PR]

ROAH/OKA  -  那覇

観測日時
2024-07-12 23:30 (UTC) (17分前)
気温
32
露点
28
湿数
4
相対湿度
79.5%
QNH
1008hPa
推定現地気圧
1007.6hPa
推定海面気圧
1007.9hPa
体感温度
28.3
(無風時)
30.7
HI
44.2
気温前日比
±0
体感温度前日比
+0.3
HI前日比
±0
水平視程
>10000m
鉛直視程
データなし
雲底高度
No dense clouds
V/I
VMC (VFR)
RVR
No RVR data
卓越風
9kt from 190°
ガスト
No gust
降水
報告なし
その他の天気
報告なし
少しの雲 @ 1500ft AGL / 散在する雲 @ 不明な高さ

ROAH 122330Z 19009KT 9999 FEW015 SCT/// 32/28 Q1008

[PR]
31.5msec